createdAt,value
2023-01-07T00:00:08.358Z,4.15
2023-01-07T00:01:41.300Z,4.06
2023-01-07T00:03:12.965Z,4.03
2023-01-07T00:04:44.563Z,4.00
2023-01-07T00:06:19.697Z,3.97
2023-01-07T00:07:51.466Z,3.91
2023-01-07T00:09:23.021Z,3.86
2023-01-07T00:10:54.589Z,3.82
2023-01-07T00:12:26.157Z,3.80
2023-01-07T00:13:58.351Z,3.78
2023-01-07T00:15:29.912Z,3.78
2023-01-07T00:17:01.490Z,3.78
2023-01-07T00:18:33.333Z,3.77
2023-01-07T00:20:05.182Z,3.76
2023-01-07T00:21:36.738Z,3.77
2023-01-07T00:23:08.307Z,3.74
2023-01-07T00:24:39.890Z,3.70
2023-01-07T00:26:12.352Z,3.65
2023-01-07T00:27:43.837Z,3.65
2023-01-07T00:29:17.078Z,3.65
2023-01-07T00:30:48.792Z,3.63
2023-01-07T00:32:20.742Z,3.61
2023-01-07T00:34:07.153Z,3.62
2023-01-07T00:35:38.812Z,3.58
2023-01-07T00:37:28.567Z,3.53
2023-01-07T00:39:00.851Z,3.54
2023-01-07T00:40:32.613Z,3.50
2023-01-07T00:42:42.666Z,3.50
2023-01-07T00:44:14.306Z,3.51
2023-01-07T00:45:45.928Z,3.52
2023-01-07T00:47:17.440Z,3.52
2023-01-07T00:48:48.985Z,3.54
2023-01-07T00:50:21.432Z,3.53
2023-01-07T00:51:52.988Z,3.49
2023-01-07T00:53:25.338Z,3.49
2023-01-07T00:54:59.199Z,3.47
2023-01-07T00:56:31.000Z,3.49
2023-01-07T00:58:02.463Z,3.50
2023-01-07T00:59:34.078Z,3.51
2023-01-07T01:01:05.722Z,3.52
2023-01-07T01:02:37.841Z,3.52
2023-01-07T01:04:09.447Z,3.53
2023-01-07T01:05:40.963Z,3.52
2023-01-07T01:07:12.464Z,3.49
2023-01-07T01:08:44.475Z,3.44
2023-01-07T01:10:16.721Z,3.41
2023-01-07T01:11:48.259Z,3.42
2023-01-07T01:13:19.931Z,3.42
2023-01-07T01:14:51.410Z,3.39
2023-01-07T01:16:23.139Z,3.38
2023-01-07T01:17:54.954Z,3.37
2023-01-07T01:19:26.476Z,3.36
2023-01-07T01:21:02.514Z,3.35
2023-01-07T01:22:34.374Z,3.35
2023-01-07T01:24:06.010Z,3.33
2023-01-07T01:25:37.823Z,3.29
2023-01-07T01:27:09.338Z,3.28
2023-01-07T01:28:40.914Z,3.27
2023-01-07T01:30:12.639Z,3.26
2023-01-07T01:31:44.356Z,3.26
2023-01-07T01:33:15.999Z,3.27
2023-01-07T01:34:47.480Z,3.26
2023-01-07T01:36:19.113Z,3.22
2023-01-07T01:37:50.653Z,3.21
2023-01-07T01:39:22.338Z,3.20
2023-01-07T01:40:53.837Z,3.18
2023-01-07T01:42:25.430Z,3.17
2023-01-07T01:43:57.254Z,3.17
2023-01-07T01:45:28.779Z,3.16
2023-01-07T01:47:00.544Z,3.13
2023-01-07T01:48:32.892Z,3.12
2023-01-07T01:50:10.406Z,3.15
2023-01-07T01:51:42.108Z,3.18
2023-01-07T01:53:19.954Z,3.22
2023-01-07T01:54:52.714Z,3.20
2023-01-07T01:56:25.855Z,3.14
2023-01-07T01:57:59.610Z,3.09
2023-01-07T01:59:31.654Z,3.05
2023-01-07T02:01:03.460Z,3.02
2023-01-07T02:02:37.958Z,3.05
2023-01-07T02:04:16.915Z,3.04
2023-01-07T02:05:48.460Z,3.04
2023-01-07T02:07:19.936Z,3.00
2023-01-07T02:08:51.583Z,3.01
2023-01-07T02:10:23.356Z,2.97
2023-01-07T02:11:54.939Z,2.94
2023-01-07T02:13:55.934Z,2.91
2023-01-07T02:15:30.632Z,2.84
2023-01-07T02:17:12.561Z,2.81
2023-01-07T02:18:46.641Z,2.84
2023-01-07T02:20:37.079Z,2.87
2023-01-07T02:22:14.801Z,2.87
2023-01-07T02:23:58.429Z,2.83
2023-01-07T02:25:32.744Z,2.79
2023-01-07T02:27:13.748Z,2.74
2023-01-07T02:29:03.627Z,2.71
2023-01-07T02:30:54.084Z,2.72
2023-01-07T02:32:31.217Z,2.70
2023-01-07T02:34:07.931Z,2.65
2023-01-07T02:35:57.871Z,2.67
2023-01-07T02:37:47.983Z,2.61
2023-01-07T02:39:25.341Z,2.59
2023-01-07T02:41:12.145Z,2.60
2023-01-07T02:43:07.051Z,2.62
2023-01-07T02:44:40.413Z,2.64
2023-01-07T02:46:30.640Z,2.63
2023-01-07T02:48:08.958Z,2.59
2023-01-07T02:49:40.494Z,2.66
2023-01-07T02:51:12.076Z,2.70
2023-01-07T02:52:43.758Z,2.65
2023-01-07T02:54:20.387Z,2.63
2023-01-07T02:55:51.925Z,2.61
2023-01-07T02:57:28.328Z,2.62
2023-01-07T02:59:02.733Z,2.59
2023-01-07T03:00:45.321Z,2.50
2023-01-07T03:02:17.031Z,2.44
2023-01-07T03:03:48.542Z,2.39
2023-01-07T03:05:22.823Z,2.38
2023-01-07T03:07:12.874Z,2.38
2023-01-07T03:09:00.828Z,2.34
2023-01-07T03:10:52.594Z,2.26
2023-01-07T03:12:24.248Z,2.22
2023-01-07T03:14:19.004Z,2.23
2023-01-07T03:15:56.187Z,2.32
2023-01-07T03:17:53.988Z,2.35
2023-01-07T03:19:25.994Z,2.34
2023-01-07T03:20:58.620Z,2.35
2023-01-07T03:22:30.309Z,2.37
2023-01-07T03:24:02.099Z,2.37
2023-01-07T03:25:34.853Z,2.36
2023-01-07T03:27:06.482Z,2.37
2023-01-07T03:28:40.754Z,2.36
2023-01-07T03:30:13.831Z,2.38
2023-01-07T03:31:58.688Z,2.37
2023-01-07T03:33:36.437Z,2.31
2023-01-07T03:35:08.317Z,2.25
2023-01-07T03:36:41.869Z,2.21
2023-01-07T03:38:13.449Z,2.19
2023-01-07T03:39:45.298Z,2.19
2023-01-07T03:41:36.696Z,2.19
2023-01-07T03:43:14.696Z,2.20
2023-01-07T03:44:46.197Z,2.19
2023-01-07T03:46:17.688Z,2.19
2023-01-07T03:47:49.932Z,2.17
2023-01-07T03:49:21.398Z,2.17
2023-01-07T03:50:52.915Z,2.16
2023-01-07T03:52:24.546Z,2.17
2023-01-07T03:53:56.069Z,2.16
2023-01-07T03:55:27.848Z,2.15
2023-01-07T03:56:59.540Z,2.16
2023-01-07T03:58:31.575Z,2.16
2023-01-07T04:00:04.392Z,2.17
2023-01-07T04:01:36.541Z,2.17
2023-01-07T04:03:08.246Z,2.18
2023-01-07T04:04:39.802Z,2.15
2023-01-07T04:06:11.354Z,2.16
2023-01-07T04:07:42.900Z,2.11
2023-01-07T04:09:18.931Z,2.12
2023-01-07T04:10:50.452Z,2.13
2023-01-07T04:12:22.054Z,2.07
2023-01-07T04:13:53.620Z,2.05
2023-01-07T04:15:25.070Z,2.07
2023-01-07T04:16:56.722Z,2.01
2023-01-07T04:18:28.554Z,2.00
2023-01-07T04:20:00.149Z,1.99
2023-01-07T04:21:31.660Z,1.95
2023-01-07T04:23:03.183Z,1.93
2023-01-07T04:24:34.682Z,1.91
2023-01-07T04:26:06.311Z,1.87
2023-01-07T04:27:37.958Z,1.87
2023-01-07T04:29:10.724Z,1.87
2023-01-07T04:30:42.351Z,1.87
2023-01-07T04:32:13.945Z,1.87
2023-01-07T04:33:46.103Z,1.90
2023-01-07T04:35:18.391Z,1.90
2023-01-07T04:36:50.057Z,1.88
2023-01-07T04:38:21.565Z,1.88
2023-01-07T04:39:53.143Z,1.88
2023-01-07T04:41:24.678Z,1.90
2023-01-07T04:42:56.174Z,1.91
2023-01-07T04:44:27.799Z,1.91
2023-01-07T04:45:59.393Z,1.86
2023-01-07T04:47:30.909Z,1.82
2023-01-07T04:49:02.485Z,1.77
2023-01-07T04:50:34.098Z,1.76
2023-01-07T04:52:05.658Z,1.73
2023-01-07T04:53:37.150Z,1.67
2023-01-07T04:55:09.103Z,1.68
2023-01-07T04:56:40.616Z,1.62
2023-01-07T04:58:12.139Z,1.59
2023-01-07T04:59:43.669Z,1.55
2023-01-07T05:01:15.332Z,1.51
2023-01-07T05:02:46.936Z,1.46
2023-01-07T05:04:18.477Z,1.41
2023-01-07T05:05:50.136Z,1.40
2023-01-07T05:07:21.856Z,1.38
2023-01-07T05:08:53.489Z,1.40
2023-01-07T05:10:25.099Z,1.42
2023-01-07T05:11:56.611Z,1.42
2023-01-07T05:13:28.182Z,1.42
2023-01-07T05:14:59.735Z,1.41
2023-01-07T05:16:31.452Z,1.37
2023-01-07T05:18:03.090Z,1.32
2023-01-07T05:19:34.761Z,1.31
2023-01-07T05:21:06.500Z,1.29
2023-01-07T05:22:38.014Z,1.31
2023-01-07T05:24:09.636Z,1.35
2023-01-07T05:25:41.372Z,1.37
2023-01-07T05:27:13.068Z,1.42
2023-01-07T05:28:44.543Z,1.46
2023-01-07T05:30:16.229Z,1.52
2023-01-07T05:31:47.762Z,1.52
2023-01-07T05:33:19.307Z,1.49
2023-01-07T05:34:50.842Z,1.44
2023-01-07T05:36:22.379Z,1.42
2023-01-07T05:37:53.910Z,1.37
2023-01-07T05:39:26.041Z,1.33
2023-01-07T05:40:57.646Z,1.31
2023-01-07T05:42:29.485Z,1.29
2023-01-07T05:44:01.144Z,1.25
2023-01-07T05:45:34.131Z,1.22
2023-01-07T05:47:05.675Z,1.20
2023-01-07T05:48:37.123Z,1.17
2023-01-07T05:50:08.868Z,1.17
2023-01-07T05:51:40.633Z,1.15
2023-01-07T05:53:12.659Z,1.13
2023-01-07T05:54:44.324Z,1.13
2023-01-07T05:56:15.904Z,1.13
2023-01-07T05:57:47.458Z,1.12
2023-01-07T05:59:18.973Z,1.11
2023-01-07T06:00:50.504Z,1.09
2023-01-07T06:02:22.206Z,1.10
2023-01-07T06:03:53.853Z,1.09
2023-01-07T06:05:25.642Z,1.06
2023-01-07T06:06:57.434Z,0.99
2023-01-07T06:08:29.026Z,0.88
2023-01-07T06:10:02.810Z,0.80
2023-01-07T06:11:34.771Z,0.76
2023-01-07T06:13:06.414Z,0.76
2023-01-07T06:14:37.926Z,0.78
2023-01-07T06:16:09.824Z,0.81
2023-01-07T06:17:41.387Z,0.83
2023-01-07T06:19:12.967Z,0.88
2023-01-07T06:20:44.445Z,0.93
2023-01-07T06:22:16.099Z,0.98
2023-01-07T06:23:47.738Z,1.13
2023-01-07T06:25:19.291Z,1.23
2023-01-07T06:26:50.908Z,1.34
2023-01-07T06:28:22.872Z,1.46
2023-01-07T06:29:54.507Z,1.59
2023-01-07T06:31:26.073Z,1.72
2023-01-07T06:32:58.641Z,1.90
2023-01-07T06:34:30.166Z,2.07
2023-01-07T06:36:01.808Z,2.25
2023-01-07T06:37:33.478Z,2.36
2023-01-07T06:39:05.315Z,2.44
2023-01-07T06:40:36.995Z,2.48
2023-01-07T06:42:08.537Z,2.53
2023-01-07T06:43:40.057Z,2.60
2023-01-07T06:45:12.076Z,2.62
2023-01-07T06:46:43.746Z,2.70
2023-01-07T06:48:15.369Z,2.76
2023-01-07T06:49:46.855Z,2.77
2023-01-07T06:51:18.385Z,2.78
2023-01-07T06:52:49.952Z,2.82
2023-01-07T06:54:21.427Z,2.86
2023-01-07T06:55:53.266Z,2.93
2023-01-07T06:57:24.759Z,2.96
2023-01-07T06:58:56.368Z,2.99
2023-01-07T07:00:27.963Z,3.09
2023-01-07T07:01:59.538Z,3.20
2023-01-07T07:03:30.996Z,3.31
2023-01-07T07:05:02.662Z,3.47
2023-01-07T07:06:34.204Z,3.69
2023-01-07T07:08:06.557Z,3.88
2023-01-07T07:09:38.115Z,4.06
2023-01-07T07:11:09.721Z,4.12
2023-01-07T07:12:41.743Z,4.16
2023-01-07T07:14:13.366Z,4.20
2023-01-07T07:15:44.928Z,4.23
2023-01-07T07:17:17.057Z,4.28
2023-01-07T07:18:48.705Z,4.35
2023-01-07T07:20:20.252Z,4.44
2023-01-07T07:21:51.806Z,4.48
2023-01-07T07:23:23.433Z,4.52
2023-01-07T07:24:54.999Z,4.59
2023-01-07T07:26:26.663Z,4.66
2023-01-07T07:27:58.234Z,4.72
2023-01-07T07:29:29.941Z,4.81
2023-01-07T07:31:01.459Z,4.88
2023-01-07T07:32:33.083Z,5.00
2023-01-07T07:34:04.858Z,5.07
2023-01-07T07:35:36.385Z,5.15
2023-01-07T07:37:08.587Z,5.18
2023-01-07T07:38:40.600Z,5.19
2023-01-07T07:40:12.683Z,5.19
2023-01-07T07:41:44.224Z,5.23
2023-01-07T07:43:16.067Z,5.25
2023-01-07T07:44:47.954Z,5.35
2023-01-07T07:46:19.817Z,5.43
2023-01-07T07:47:51.571Z,5.51
2023-01-07T07:49:23.400Z,5.55
2023-01-07T07:50:54.950Z,5.52
2023-01-07T07:52:26.527Z,5.50
2023-01-07T07:53:58.830Z,5.45
2023-01-07T07:55:30.818Z,5.44
2023-01-07T07:57:04.007Z,5.45
2023-01-07T07:58:35.566Z,5.46
2023-01-07T08:00:07.533Z,5.52
2023-01-07T08:01:39.203Z,5.56
2023-01-07T08:03:11.198Z,5.66
2023-01-07T08:04:42.820Z,5.72
2023-01-07T08:06:14.507Z,5.80
2023-01-07T08:07:46.178Z,5.76
2023-01-07T08:09:17.748Z,5.83
2023-01-07T08:10:49.276Z,5.82
2023-01-07T08:12:20.853Z,5.77
2023-01-07T08:13:52.697Z,5.80
2023-01-07T08:15:24.328Z,5.82
2023-01-07T08:16:55.875Z,5.83
2023-01-07T08:18:27.531Z,5.90
2023-01-07T08:19:59.125Z,5.98
2023-01-07T08:21:30.639Z,6.01
2023-01-07T08:23:02.421Z,6.13
2023-01-07T08:24:36.152Z,6.25
2023-01-07T08:26:07.807Z,6.38
2023-01-07T08:27:39.372Z,6.53
2023-01-07T08:29:10.963Z,6.67
2023-01-07T08:30:42.791Z,6.80
2023-01-07T08:32:14.843Z,6.84
2023-01-07T08:33:46.389Z,6.81
2023-01-07T08:35:17.929Z,6.87
2023-01-07T08:36:49.602Z,6.96
2023-01-07T08:38:21.331Z,6.98
2023-01-07T08:39:52.879Z,6.99
2023-01-07T08:41:25.405Z,6.96
2023-01-07T08:43:00.249Z,7.04
2023-01-07T08:44:33.232Z,7.09
2023-01-07T08:46:05.742Z,7.13
2023-01-07T08:47:37.401Z,7.16
2023-01-07T08:49:10.077Z,7.21
2023-01-07T08:50:41.671Z,7.28
2023-01-07T08:52:13.262Z,7.36
2023-01-07T08:53:44.731Z,7.41
2023-01-07T08:55:16.581Z,7.52
2023-01-07T08:56:48.075Z,7.73
2023-01-07T08:58:20.188Z,7.95
2023-01-07T08:59:51.895Z,8.10
2023-01-07T09:01:23.667Z,8.25
2023-01-07T09:02:55.421Z,8.33
2023-01-07T09:04:27.160Z,8.37
2023-01-07T09:05:58.895Z,8.45
2023-01-07T09:07:30.577Z,8.45
2023-01-07T09:09:02.083Z,8.46
2023-01-07T09:10:33.637Z,8.48
2023-01-07T09:12:05.633Z,8.61
2023-01-07T09:13:37.188Z,8.66
2023-01-07T09:15:09.255Z,8.76
2023-01-07T09:16:40.929Z,8.77
2023-01-07T09:18:12.485Z,8.83
2023-01-07T09:19:44.248Z,8.86
2023-01-07T09:21:15.884Z,8.90
2023-01-07T09:22:47.609Z,8.97
2023-01-07T09:24:19.336Z,9.01
2023-01-07T09:25:50.973Z,9.07
2023-01-07T09:27:22.908Z,9.10
2023-01-07T09:28:54.600Z,9.10
2023-01-07T09:30:26.198Z,9.06
2023-01-07T09:31:57.927Z,9.07
2023-01-07T09:33:32.541Z,9.16
2023-01-07T09:35:04.831Z,9.27
2023-01-07T09:36:38.584Z,9.42
2023-01-07T09:38:10.198Z,9.60
2023-01-07T09:39:49.006Z,9.73
2023-01-07T09:41:40.932Z,9.79
2023-01-07T09:43:20.386Z,9.91
2023-01-07T09:44:54.813Z,10.05
2023-01-07T09:46:26.521Z,10.09
2023-01-07T09:47:58.635Z,10.04
2023-01-07T09:49:30.599Z,10.02
2023-01-07T09:51:20.932Z,10.02
2023-01-07T09:52:54.044Z,10.02
2023-01-07T09:54:25.932Z,10.11
2023-01-07T09:56:11.373Z,10.13
2023-01-07T09:57:46.979Z,10.13
2023-01-07T09:59:18.483Z,10.16
2023-01-07T10:00:54.612Z,10.24
2023-01-07T10:02:38.666Z,10.30
2023-01-07T10:04:37.572Z,10.38
2023-01-07T10:06:09.322Z,10.46
2023-01-07T10:08:30.500Z,10.55
2023-01-07T10:09:51.971Z,10.62
2023-01-07T10:11:29.490Z,10.62
2023-01-07T10:13:04.501Z,10.73
2023-01-07T10:14:43.617Z,10.87
2023-01-07T10:16:29.886Z,10.96
2023-01-07T10:18:23.237Z,11.08
2023-01-07T10:20:03.598Z,11.29
2023-01-07T10:21:58.451Z,11.44
2023-01-07T10:23:37.087Z,11.62
2023-01-07T10:25:16.255Z,11.80
2023-01-07T10:26:51.666Z,11.91
2023-01-07T10:28:30.525Z,11.97
2023-01-07T10:30:03.546Z,12.09
2023-01-07T10:31:35.328Z,12.15
2023-01-07T10:33:19.381Z,12.17
2023-01-07T10:34:51.887Z,12.27
2023-01-07T10:36:25.734Z,12.41
2023-01-07T10:37:57.687Z,12.41
2023-01-07T10:39:50.076Z,12.35
2023-01-07T10:41:30.267Z,12.44
2023-01-07T10:43:11.899Z,12.45
2023-01-07T10:44:59.963Z,12.43
2023-01-07T10:46:47.131Z,12.40
2023-01-07T10:48:24.511Z,12.34
2023-01-07T10:49:57.489Z,12.34
2023-01-07T10:51:39.045Z,12.29
2023-01-07T10:53:10.655Z,12.35
2023-01-07T10:54:49.996Z,12.41
2023-01-07T10:56:47.658Z,12.46
2023-01-07T10:58:19.916Z,12.38
2023-01-07T10:59:53.009Z,12.33
2023-01-07T11:01:24.953Z,12.39
2023-01-07T11:03:00.251Z,12.44
2023-01-07T11:04:31.960Z,12.46
2023-01-07T11:06:04.820Z,12.50
2023-01-07T11:07:44.371Z,12.64
2023-01-07T11:09:19.906Z,12.69
2023-01-07T11:10:51.771Z,12.82
2023-01-07T11:12:42.213Z,13.06
2023-01-07T11:14:21.407Z,13.22
2023-01-07T11:16:00.130Z,13.31
2023-01-07T11:17:31.617Z,13.50
2023-01-07T11:19:03.339Z,13.67
2023-01-07T11:20:41.898Z,13.84
2023-01-07T11:22:39.830Z,14.03
2023-01-07T11:24:30.465Z,14.20
2023-01-07T11:26:28.120Z,14.33
2023-01-07T11:28:01.274Z,14.28
2023-01-07T11:29:37.668Z,14.32
2023-01-07T11:31:09.794Z,14.39
2023-01-07T11:32:41.601Z,14.47
2023-01-07T11:34:20.704Z,14.51
2023-01-07T11:35:53.277Z,14.32
2023-01-07T11:37:34.426Z,14.27
2023-01-07T11:39:16.975Z,14.33
2023-01-07T11:40:50.822Z,14.42
2023-01-07T11:42:41.074Z,14.53
2023-01-07T11:44:15.722Z,14.67
2023-01-07T11:46:20.542Z,14.76
2023-01-07T11:48:00.708Z,14.79
2023-01-07T11:49:32.375Z,14.85
2023-01-07T11:51:06.097Z,14.87
2023-01-07T11:52:38.230Z,14.94
2023-01-07T11:54:18.113Z,14.96
2023-01-07T11:56:06.063Z,15.00
2023-01-07T11:57:37.855Z,15.05
2023-01-07T11:59:12.409Z,15.20
2023-01-07T12:00:44.145Z,15.39
2023-01-07T12:02:22.820Z,15.45
2023-01-07T12:03:54.476Z,15.42
2023-01-07T12:05:29.099Z,15.43
2023-01-07T12:07:01.673Z,15.46
2023-01-07T12:08:33.285Z,15.51
2023-01-07T12:10:05.215Z,15.67
2023-01-07T12:11:37.283Z,15.68
2023-01-07T12:13:18.729Z,15.72
2023-01-07T12:14:50.257Z,15.80
2023-01-07T12:16:25.917Z,15.73
2023-01-07T12:18:16.392Z,15.76
2023-01-07T12:19:59.064Z,15.81
2023-01-07T12:21:42.669Z,15.99
2023-01-07T12:23:34.579Z,16.01
2023-01-07T12:25:16.432Z,16.00
2023-01-07T12:26:57.351Z,16.05
2023-01-07T12:28:42.610Z,16.08
2023-01-07T12:30:32.889Z,16.17
2023-01-07T12:32:26.979Z,16.22
2023-01-07T12:34:05.544Z,16.15
2023-01-07T12:35:38.575Z,16.09
2023-01-07T12:37:28.719Z,16.13
2023-01-07T12:39:01.228Z,16.23
2023-01-07T12:40:47.730Z,16.23
2023-01-07T12:44:03.492Z,16.40
2023-01-07T12:45:42.924Z,16.36
2023-01-07T12:47:31.482Z,16.46
2023-01-07T12:49:08.111Z,16.65
2023-01-07T12:50:41.212Z,16.68
2023-01-07T12:52:24.902Z,16.65
2023-01-07T12:53:57.664Z,16.71
2023-01-07T12:55:40.230Z,16.74
2023-01-07T12:57:12.005Z,16.82
2023-01-07T12:58:47.491Z,16.92
2023-01-07T13:00:26.080Z,16.84
2023-01-07T13:02:00.566Z,16.82
2023-01-07T13:03:55.890Z,16.72
2023-01-07T13:05:41.543Z,16.73
2023-01-07T13:07:14.994Z,16.81
2023-01-07T13:08:58.140Z,16.95
2023-01-07T13:10:39.609Z,17.04
2023-01-07T13:12:41.867Z,17.23
2023-01-07T13:14:22.687Z,17.21
2023-01-07T13:15:54.654Z,17.13
2023-01-07T13:17:27.050Z,17.13
2023-01-07T13:18:59.148Z,17.09
2023-01-07T13:20:49.724Z,16.87
2023-01-07T13:22:38.438Z,16.80
2023-01-07T13:24:14.505Z,16.76
2023-01-07T13:25:50.955Z,16.80
2023-01-07T13:27:24.714Z,16.79
2023-01-07T13:29:05.168Z,16.78
2023-01-07T13:30:46.034Z,16.86
2023-01-07T13:32:22.793Z,16.88
2023-01-07T13:34:00.386Z,16.90
2023-01-07T13:35:31.925Z,16.96
2023-01-07T13:37:03.761Z,17.06
2023-01-07T13:38:41.877Z,17.01
2023-01-07T13:40:24.655Z,17.00
2023-01-07T13:42:00.035Z,17.01
2023-01-07T13:43:31.674Z,17.00
2023-01-07T13:45:03.316Z,17.00
2023-01-07T13:46:35.652Z,16.95
2023-01-07T13:48:16.578Z,17.01
2023-01-07T13:49:57.827Z,17.07
2023-01-07T13:51:30.592Z,17.14
2023-01-07T13:53:06.164Z,17.15
2023-01-07T13:54:50.638Z,17.14
2023-01-07T13:56:22.730Z,17.09
2023-01-07T13:57:54.301Z,17.08
2023-01-07T13:59:30.014Z,17.06
2023-01-07T14:01:15.084Z,16.98
2023-01-07T14:02:56.311Z,16.82
2023-01-07T14:04:34.213Z,16.63
2023-01-07T14:06:20.820Z,16.59
2023-01-07T14:07:53.443Z,16.57
2023-01-07T14:09:26.084Z,16.58
2023-01-07T14:10:57.647Z,16.50
2023-01-07T14:12:45.638Z,16.51
2023-01-07T14:14:35.599Z,16.53
2023-01-07T14:16:26.007Z,16.52
2023-01-07T14:17:57.622Z,16.54
2023-01-07T14:19:48.302Z,16.50
2023-01-07T14:21:32.335Z,16.42
2023-01-07T14:23:12.784Z,16.31
2023-01-07T14:24:44.456Z,16.25
2023-01-07T14:26:34.700Z,16.17
2023-01-07T14:28:16.704Z,16.10
2023-01-07T14:29:48.415Z,16.07
2023-01-07T14:31:53.334Z,16.04
2023-01-07T14:33:25.681Z,15.90
2023-01-07T14:35:20.275Z,15.74
2023-01-07T14:37:09.981Z,15.64
2023-01-07T14:38:42.118Z,15.47
2023-01-07T14:40:34.002Z,15.41
2023-01-07T14:42:20.606Z,15.27
2023-01-07T14:44:02.448Z,15.15
2023-01-07T14:45:36.650Z,15.07
2023-01-07T14:47:11.573Z,14.92
2023-01-07T14:48:43.136Z,14.82
2023-01-07T14:50:30.395Z,14.77
2023-01-07T14:52:17.796Z,14.68
2023-01-07T14:53:57.320Z,14.59
2023-01-07T14:55:31.980Z,14.55
2023-01-07T14:57:07.718Z,14.51
2023-01-07T14:58:46.180Z,14.44
2023-01-07T15:00:26.638Z,14.34
2023-01-07T15:01:58.297Z,14.24
2023-01-07T15:03:39.355Z,14.12
2023-01-07T15:05:30.098Z,13.89
2023-01-07T15:07:01.853Z,13.69
2023-01-07T15:09:18.511Z,13.59
2023-01-07T15:11:09.017Z,13.41
2023-01-07T15:12:59.099Z,13.22
2023-01-07T15:14:49.370Z,13.03
2023-01-07T15:16:21.157Z,12.85
2023-01-07T15:17:53.004Z,12.70
2023-01-07T15:19:24.642Z,12.62
2023-01-07T15:20:56.170Z,12.50
2023-01-07T15:22:33.869Z,12.35
2023-01-07T15:24:05.691Z,12.25
2023-01-07T15:25:50.399Z,12.11
2023-01-07T15:27:24.861Z,12.01
2023-01-07T15:29:09.298Z,11.92
2023-01-07T15:31:01.161Z,11.81
2023-01-07T15:32:42.239Z,11.69
2023-01-07T15:34:14.924Z,11.60
2023-01-07T15:35:46.756Z,11.51
2023-01-07T15:37:18.823Z,11.47
2023-01-07T15:38:53.042Z,11.42
2023-01-07T15:40:24.965Z,11.38
2023-01-07T15:41:56.759Z,11.34
2023-01-07T15:43:29.044Z,11.29
2023-01-07T15:45:00.946Z,11.23
2023-01-07T15:46:32.996Z,11.16
2023-01-07T15:48:08.117Z,11.10
2023-01-07T15:49:42.907Z,10.97
2023-01-07T15:51:17.763Z,10.86
2023-01-07T15:52:50.319Z,10.79
2023-01-07T15:54:28.380Z,10.70
2023-01-07T15:56:02.128Z,10.62
2023-01-07T15:57:35.553Z,10.51
2023-01-07T15:59:07.451Z,10.40
2023-01-07T16:00:39.027Z,10.33
2023-01-07T16:02:20.129Z,10.27
2023-01-07T16:03:52.703Z,10.19
2023-01-07T16:05:26.466Z,10.14
2023-01-07T16:06:59.377Z,10.19
2023-01-07T16:08:31.618Z,10.22
2023-01-07T16:10:03.334Z,10.26
2023-01-07T16:11:34.866Z,10.31
2023-01-07T16:13:14.405Z,10.31
2023-01-07T16:14:46.676Z,10.31
2023-01-07T16:16:18.665Z,10.23
2023-01-07T16:17:51.373Z,10.08
2023-01-07T16:19:23.196Z,9.99
2023-01-07T16:20:57.772Z,9.92
2023-01-07T16:22:29.347Z,9.89
2023-01-07T16:24:00.986Z,9.86
2023-01-07T16:25:34.795Z,9.87
2023-01-07T16:27:09.406Z,9.90
2023-01-07T16:28:46.333Z,9.89
2023-01-07T16:30:18.244Z,9.91
2023-01-07T16:31:49.980Z,9.92
2023-01-07T16:33:23.436Z,9.90
2023-01-07T16:34:56.617Z,9.91
2023-01-07T16:36:36.319Z,9.90
2023-01-07T16:38:08.494Z,9.87
2023-01-07T16:39:41.262Z,9.87
2023-01-07T16:41:19.381Z,9.83
2023-01-07T16:42:51.025Z,9.81
2023-01-07T16:44:41.850Z,9.84
2023-01-07T16:46:16.443Z,9.83
2023-01-07T16:47:58.604Z,9.76
2023-01-07T16:49:30.307Z,9.73
2023-01-07T16:51:02.214Z,9.70
2023-01-07T16:52:33.754Z,9.67
2023-01-07T16:54:24.177Z,9.66
2023-01-07T16:56:07.966Z,9.65
2023-01-07T16:57:42.264Z,9.63
2023-01-07T16:59:14.439Z,9.57
2023-01-07T17:00:49.491Z,9.55
2023-01-07T17:02:42.157Z,9.51
2023-01-07T17:04:17.840Z,9.48
2023-01-07T17:05:59.371Z,9.46
2023-01-07T17:07:30.927Z,9.45
2023-01-07T17:09:02.737Z,9.41
2023-01-07T17:10:35.279Z,9.33
2023-01-07T17:12:07.092Z,9.27
2023-01-07T17:13:39.073Z,9.22
2023-01-07T17:15:29.203Z,9.14
2023-01-07T17:17:01.185Z,9.10
2023-01-07T17:18:33.293Z,9.09
2023-01-07T17:20:14.364Z,9.10
2023-01-07T17:21:45.864Z,9.14
2023-01-07T17:23:26.542Z,9.20
2023-01-07T17:25:11.462Z,9.16
2023-01-07T17:26:42.947Z,9.10
2023-01-07T17:28:19.571Z,9.06
2023-01-07T17:29:51.190Z,9.01
2023-01-07T17:31:23.701Z,9.00
2023-01-07T17:32:55.498Z,9.00
2023-01-07T17:34:27.225Z,9.01
2023-01-07T17:35:58.831Z,9.03
2023-01-07T17:37:30.500Z,9.02
2023-01-07T17:39:02.163Z,8.99
2023-01-07T17:40:33.733Z,8.93
2023-01-07T17:42:27.690Z,8.86
2023-01-07T17:44:00.149Z,8.71
2023-01-07T17:45:57.967Z,8.65
2023-01-07T17:47:31.729Z,8.58
2023-01-07T17:49:07.059Z,8.57
2023-01-07T17:51:23.593Z,8.54
2023-01-07T17:52:55.276Z,8.51
2023-01-07T17:54:27.398Z,8.50
2023-01-07T17:56:01.391Z,8.51
2023-01-07T17:57:33.377Z,8.51
2023-01-07T17:59:07.794Z,8.51
2023-01-07T18:00:41.232Z,8.51
2023-01-07T18:02:40.773Z,8.57
2023-01-07T18:04:15.618Z,8.59
2023-01-07T18:05:47.620Z,8.60
2023-01-07T18:07:22.086Z,8.62
2023-01-07T18:08:53.879Z,8.63
2023-01-07T18:10:26.757Z,8.67
2023-01-07T18:12:17.105Z,8.70
2023-01-07T18:13:51.017Z,8.67
2023-01-07T18:15:36.759Z,8.59
2023-01-07T18:19:34.585Z,8.49
2023-01-07T18:21:14.240Z,8.48
2023-01-07T18:22:47.996Z,8.44
2023-01-07T18:24:20.123Z,8.41
2023-01-07T18:25:51.796Z,8.38
2023-01-07T18:27:35.644Z,8.38
2023-01-07T18:29:33.912Z,8.43
2023-01-07T18:31:07.864Z,8.42
2023-01-07T18:32:51.615Z,8.40
2023-01-07T18:34:26.296Z,8.38
2023-01-07T18:36:14.734Z,8.35
2023-01-07T18:37:52.924Z,8.28
2023-01-07T18:39:40.626Z,8.21
2023-01-07T18:41:16.543Z,8.13
2023-01-07T18:42:50.205Z,8.03
2023-01-07T18:44:33.215Z,7.97
2023-01-07T18:46:08.143Z,7.96
2023-01-07T18:47:43.884Z,7.93
2023-01-07T18:49:40.575Z,7.90
2023-01-07T18:51:31.752Z,7.89
2023-01-07T18:53:10.807Z,7.96
2023-01-07T18:54:46.541Z,7.92
2023-01-07T18:56:19.420Z,7.88
2023-01-07T18:57:57.520Z,7.84
2023-01-07T18:59:29.523Z,7.87
2023-01-07T19:01:15.285Z,7.89
2023-01-07T19:03:04.255Z,7.89
2023-01-07T19:04:45.756Z,7.81
2023-01-07T19:08:11.683Z,7.74
2023-01-07T19:09:50.215Z,7.70
2023-01-07T19:11:22.195Z,7.64
2023-01-07T19:13:05.837Z,7.60
2023-01-07T19:14:37.727Z,7.55
2023-01-07T19:16:10.394Z,7.48
2023-01-07T19:17:42.071Z,7.40
2023-01-07T19:19:14.484Z,7.33
2023-01-07T19:20:46.330Z,7.30
2023-01-07T19:22:20.849Z,7.23
2023-01-07T19:23:52.557Z,7.18
2023-01-07T19:25:24.227Z,7.13
2023-01-07T19:26:55.759Z,7.10
2023-01-07T19:28:27.542Z,7.08
2023-01-07T19:29:59.057Z,7.04
2023-01-07T19:31:30.540Z,7.02
2023-01-07T19:33:04.461Z,6.99
2023-01-07T19:34:36.095Z,6.99
2023-01-07T19:36:09.575Z,6.99
2023-01-07T19:37:41.123Z,7.01
2023-01-07T19:39:13.681Z,7.05
2023-01-07T19:40:45.336Z,7.08
2023-01-07T19:42:16.894Z,7.09
2023-01-07T19:43:48.657Z,7.10
2023-01-07T19:45:20.302Z,7.12
2023-01-07T19:46:51.804Z,7.08
2023-01-07T19:48:23.734Z,7.08
2023-01-07T19:49:55.416Z,7.02
2023-01-07T19:51:35.417Z,6.93
2023-01-07T19:53:07.385Z,6.90
2023-01-07T19:54:39.330Z,6.87
2023-01-07T19:56:12.031Z,6.83
2023-01-07T19:57:43.584Z,6.81
2023-01-07T19:59:15.251Z,6.79
2023-01-07T20:00:49.731Z,6.81
2023-01-07T20:02:21.494Z,6.79
2023-01-07T20:03:53.825Z,6.79
2023-01-07T20:05:27.037Z,6.77
2023-01-07T20:06:59.674Z,6.80
2023-01-07T20:08:40.289Z,6.82
2023-01-07T20:10:21.211Z,6.82
2023-01-07T20:12:09.623Z,6.83
2023-01-07T20:13:46.905Z,6.78
2023-01-07T20:15:22.302Z,6.76
2023-01-07T20:16:58.271Z,6.68
2023-01-07T20:18:33.726Z,6.62
2023-01-07T20:20:43.429Z,6.59
2023-01-07T20:22:15.265Z,6.53
2023-01-07T20:23:48.072Z,6.53
2023-01-07T20:25:20.855Z,6.51
2023-01-07T20:26:54.713Z,6.51
2023-01-07T20:28:27.185Z,6.54
2023-01-07T20:30:04.095Z,6.57
2023-01-07T20:31:45.193Z,6.55
2023-01-07T20:33:19.825Z,6.51
2023-01-07T20:34:54.532Z,6.46
2023-01-07T20:36:27.976Z,6.44
2023-01-07T20:38:00.234Z,6.43
2023-01-07T20:39:32.189Z,6.44
2023-01-07T20:41:04.928Z,6.44
2023-01-07T20:42:36.861Z,6.43
2023-01-07T20:44:11.919Z,6.42
2023-01-07T20:45:43.617Z,6.42
2023-01-07T20:47:15.614Z,6.39
2023-01-07T20:48:47.413Z,6.39
2023-01-07T20:50:19.429Z,6.36
2023-01-07T20:51:51.359Z,6.35
2023-01-07T20:53:23.178Z,6.31
2023-01-07T20:54:55.177Z,6.26
2023-01-07T20:56:32.533Z,6.20
2023-01-07T20:58:05.365Z,6.15
2023-01-07T20:59:37.005Z,6.13
2023-01-07T21:01:10.604Z,6.13
2023-01-07T21:02:42.352Z,6.14
2023-01-07T21:04:14.100Z,6.17
2023-01-07T21:05:46.321Z,6.16